sensor_id;sensor_type;location;lat;lon;timestamp;P1;durP1;ratioP1;P2;durP2;ratioP2
6053;SDS011;3055;50.886;14.814;2023-07-29T00:00:43;6.57;;;4.50;;
6053;SDS011;3055;50.886;14.814;2023-07-29T00:03:10;5.10;;;4.60;;
6053;SDS011;3055;50.886;14.814;2023-07-29T00:05:37;4.73;;;4.33;;
6053;SDS011;3055;50.886;14.814;2023-07-29T00:08:05;4.97;;;4.47;;
6053;SDS011;3055;50.886;14.814;2023-07-29T00:10:36;5.23;;;4.80;;
6053;SDS011;3055;50.886;14.814;2023-07-29T00:13:04;4.47;;;4.07;;
6053;SDS011;3055;50.886;14.814;2023-07-29T00:15:32;4.57;;;4.20;;
6053;SDS011;3055;50.886;14.814;2023-07-29T00:18:00;4.17;;;3.70;;
6053;SDS011;3055;50.886;14.814;2023-07-29T00:20:29;4.53;;;3.93;;
6053;SDS011;3055;50.886;14.814;2023-07-29T00:22:56;3.77;;;3.40;;
6053;SDS011;3055;50.886;14.814;2023-07-29T00:25:24;4.47;;;4.07;;
6053;SDS011;3055;50.886;14.814;2023-07-29T00:27:51;3.53;;;3.23;;
6053;SDS011;3055;50.886;14.814;2023-07-29T00:30:20;3.50;;;3.20;;
6053;SDS011;3055;50.886;14.814;2023-07-29T00:32:49;4.50;;;3.00;;
6053;SDS011;3055;50.886;14.814;2023-07-29T00:35:16;3.97;;;3.57;;
6053;SDS011;3055;50.886;14.814;2023-07-29T00:37:43;4.87;;;3.67;;
6053;SDS011;3055;50.886;14.814;2023-07-29T00:40:13;4.37;;;3.97;;
6053;SDS011;3055;50.886;14.814;2023-07-29T00:42:42;3.70;;;3.40;;
6053;SDS011;3055;50.886;14.814;2023-07-29T00:45:09;3.97;;;3.53;;
6053;SDS011;3055;50.886;14.814;2023-07-29T00:47:37;3.73;;;3.30;;
6053;SDS011;3055;50.886;14.814;2023-07-29T00:50:06;3.03;;;2.73;;
6053;SDS011;3055;50.886;14.814;2023-07-29T00:52:35;3.47;;;2.73;;
6053;SDS011;3055;50.886;14.814;2023-07-29T00:55:02;3.40;;;2.97;;
6053;SDS011;3055;50.886;14.814;2023-07-29T00:57:30;3.17;;;2.87;;
6053;SDS011;3055;50.886;14.814;2023-07-29T00:59:58;3.27;;;2.97;;
6053;SDS011;3055;50.886;14.814;2023-07-29T01:02:28;3.30;;;3.00;;
6053;SDS011;3055;50.886;14.814;2023-07-29T01:04:58;4.30;;;2.97;;
6053;SDS011;3055;50.886;14.814;2023-07-29T01:07:29;3.60;;;3.00;;
6053;SDS011;3055;50.886;14.814;2023-07-29T01:10:00;3.33;;;3.03;;
6053;SDS011;3055;50.886;14.814;2023-07-29T01:12:33;3.57;;;3.27;;
6053;SDS011;3055;50.886;14.814;2023-07-29T01:15:08;3.57;;;3.27;;
6053;SDS011;3055;50.886;14.814;2023-07-29T01:17:42;3.23;;;2.97;;
6053;SDS011;3055;50.886;14.814;2023-07-29T01:20:13;3.20;;;2.90;;
6053;SDS011;3055;50.886;14.814;2023-07-29T01:22:43;3.47;;;3.17;;
6053;SDS011;3055;50.886;14.814;2023-07-29T01:25:12;3.20;;;2.90;;
6053;SDS011;3055;50.886;14.814;2023-07-29T01:27:42;3.43;;;2.77;;
6053;SDS011;3055;50.886;14.814;2023-07-29T01:30:09;3.20;;;3.00;;
6053;SDS011;3055;50.886;14.814;2023-07-29T01:32:41;3.27;;;2.97;;
6053;SDS011;3055;50.886;14.814;2023-07-29T01:35:19;2.63;;;2.43;;
6053;SDS011;3055;50.886;14.814;2023-07-29T01:37:53;2.63;;;2.43;;
6053;SDS011;3055;50.886;14.814;2023-07-29T01:40:28;3.07;;;2.77;;
6053;SDS011;3055;50.886;14.814;2023-07-29T01:42:55;2.77;;;2.57;;
6053;SDS011;3055;50.886;14.814;2023-07-29T01:45:23;2.67;;;2.40;;
6053;SDS011;3055;50.886;14.814;2023-07-29T01:47:50;2.70;;;2.50;;
6053;SDS011;3055;50.886;14.814;2023-07-29T01:50:18;3.07;;;2.80;;
6053;SDS011;3055;50.886;14.814;2023-07-29T01:52:45;2.50;;;2.30;;
6053;SDS011;3055;50.886;14.814;2023-07-29T01:55:12;2.63;;;2.43;;
6053;SDS011;3055;50.886;14.814;2023-07-29T01:57:40;2.50;;;2.30;;
6053;SDS011;3055;50.886;14.814;2023-07-29T02:00:10;2.33;;;2.17;;
6053;SDS011;3055;50.886;14.814;2023-07-29T02:02:38;2.83;;;2.03;;
6053;SDS011;3055;50.886;14.814;2023-07-29T02:05:05;2.60;;;1.83;;
6053;SDS011;3055;50.886;14.814;2023-07-29T02:07:32;2.67;;;2.30;;
6053;SDS011;3055;50.886;14.814;2023-07-29T02:09:59;2.73;;;2.20;;
6053;SDS011;3055;50.886;14.814;2023-07-29T02:12:26;2.40;;;2.20;;
6053;SDS011;3055;50.886;14.814;2023-07-29T02:14:55;3.37;;;2.63;;
6053;SDS011;3055;50.886;14.814;2023-07-29T02:17:22;2.53;;;2.33;;
6053;SDS011;3055;50.886;14.814;2023-07-29T02:19:49;2.70;;;2.33;;
6053;SDS011;3055;50.886;14.814;2023-07-29T02:22:16;2.90;;;2.23;;
6053;SDS011;3055;50.886;14.814;2023-07-29T02:24:44;2.50;;;2.27;;
6053;SDS011;3055;50.886;14.814;2023-07-29T02:27:11;2.17;;;1.90;;
6053;SDS011;3055;50.886;14.814;2023-07-29T02:29:38;2.10;;;2.00;;
6053;SDS011;3055;50.886;14.814;2023-07-29T02:32:07;2.07;;;1.97;;
6053;SDS011;3055;50.886;14.814;2023-07-29T02:34:34;2.67;;;1.80;;
6053;SDS011;3055;50.886;14.814;2023-07-29T02:37:01;2.43;;;1.83;;
6053;SDS011;3055;50.886;14.814;2023-07-29T02:39:29;1.83;;;1.73;;
6053;SDS011;3055;50.886;14.814;2023-07-29T02:41:56;3.23;;;2.00;;
6053;SDS011;3055;50.886;14.814;2023-07-29T02:44:23;1.90;;;1.80;;
6053;SDS011;3055;50.886;14.814;2023-07-29T02:46:50;2.23;;;1.87;;
6053;SDS011;3055;50.886;14.814;2023-07-29T02:49:22;1.90;;;1.80;;
6053;SDS011;3055;50.886;14.814;2023-07-29T02:51:49;2.10;;;1.90;;
6053;SDS011;3055;50.886;14.814;2023-07-29T02:54:16;2.00;;;1.90;;
6053;SDS011;3055;50.886;14.814;2023-07-29T02:56:43;2.30;;;1.93;;
6053;SDS011;3055;50.886;14.814;2023-07-29T02:59:10;2.67;;;2.07;;
6053;SDS011;3055;50.886;14.814;2023-07-29T03:01:37;2.70;;;1.90;;
6053;SDS011;3055;50.886;14.814;2023-07-29T03:04:04;2.43;;;1.73;;
6053;SDS011;3055;50.886;14.814;2023-07-29T03:06:33;1.80;;;1.70;;
6053;SDS011;3055;50.886;14.814;2023-07-29T03:09:00;2.53;;;1.80;;
6053;SDS011;3055;50.886;14.814;2023-07-29T03:11:27;1.83;;;1.63;;
6053;SDS011;3055;50.886;14.814;2023-07-29T03:13:54;2.10;;;2.00;;
6053;SDS011;3055;50.886;14.814;2023-07-29T03:16:21;2.20;;;1.83;;
6053;SDS011;3055;50.886;14.814;2023-07-29T03:18:48;2.07;;;1.80;;
6053;SDS011;3055;50.886;14.814;2023-07-29T03:21:16;2.17;;;1.97;;
6053;SDS011;3055;50.886;14.814;2023-07-29T03:23:44;2.23;;;1.97;;
6053;SDS011;3055;50.886;14.814;2023-07-29T03:26:11;2.23;;;1.77;;
6053;SDS011;3055;50.886;14.814;2023-07-29T03:28:39;2.10;;;1.90;;
6053;SDS011;3055;50.886;14.814;2023-07-29T03:31:06;3.33;;;1.80;;
6053;SDS011;3055;50.886;14.814;2023-07-29T03:33:34;2.10;;;2.00;;
6053;SDS011;3055;50.886;14.814;2023-07-29T03:36:01;2.33;;;2.10;;
6053;SDS011;3055;50.886;14.814;2023-07-29T03:38:28;2.07;;;1.97;;
6053;SDS011;3055;50.886;14.814;2023-07-29T03:40:57;3.23;;;2.00;;
6053;SDS011;3055;50.886;14.814;2023-07-29T03:43:24;2.43;;;1.83;;
6053;SDS011;3055;50.886;14.814;2023-07-29T03:45:51;2.93;;;1.90;;
6053;SDS011;3055;50.886;14.814;2023-07-29T03:48:18;3.53;;;2.37;;
6053;SDS011;3055;50.886;14.814;2023-07-29T03:50:45;1.83;;;1.73;;
6053;SDS011;3055;50.886;14.814;2023-07-29T03:53:13;1.87;;;1.77;;
6053;SDS011;3055;50.886;14.814;2023-07-29T03:55:40;2.10;;;2.00;;
6053;SDS011;3055;50.886;14.814;2023-07-29T03:58:08;3.40;;;1.87;;
6053;SDS011;3055;50.886;14.814;2023-07-29T04:00:35;2.47;;;2.20;;
6053;SDS011;3055;50.886;14.814;2023-07-29T04:03:03;2.20;;;1.93;;
6053;SDS011;3055;50.886;14.814;2023-07-29T04:05:30;2.43;;;2.10;;
6053;SDS011;3055;50.886;14.814;2023-07-29T04:07:57;1.90;;;1.80;;
6053;SDS011;3055;50.886;14.814;2023-07-29T04:10:24;2.60;;;2.40;;
6053;SDS011;3055;50.886;14.814;2023-07-29T04:12:51;2.80;;;2.60;;
6053;SDS011;3055;50.886;14.814;2023-07-29T04:15:20;3.80;;;2.40;;
6053;SDS011;3055;50.886;14.814;2023-07-29T04:17:47;2.63;;;2.43;;
6053;SDS011;3055;50.886;14.814;2023-07-29T04:20:14;2.40;;;2.20;;
6053;SDS011;3055;50.886;14.814;2023-07-29T04:22:41;2.47;;;1.97;;
6053;SDS011;3055;50.886;14.814;2023-07-29T04:25:08;2.63;;;2.43;;
6053;SDS011;3055;50.886;14.814;2023-07-29T04:27:35;2.63;;;2.43;;
6053;SDS011;3055;50.886;14.814;2023-07-29T04:30:02;2.47;;;2.27;;
6053;SDS011;3055;50.886;14.814;2023-07-29T04:32:32;2.47;;;2.13;;
6053;SDS011;3055;50.886;14.814;2023-07-29T04:34:59;2.10;;;2.00;;
6053;SDS011;3055;50.886;14.814;2023-07-29T04:37:26;2.70;;;2.50;;
6053;SDS011;3055;50.886;14.814;2023-07-29T04:39:53;2.17;;;1.93;;
6053;SDS011;3055;50.886;14.814;2023-07-29T04:42:20;2.00;;;1.90;;
6053;SDS011;3055;50.886;14.814;2023-07-29T04:44:47;2.03;;;1.93;;
6053;SDS011;3055;50.886;14.814;2023-07-29T04:47:14;2.33;;;2.20;;
6053;SDS011;3055;50.886;14.814;2023-07-29T04:49:43;2.40;;;2.20;;
6053;SDS011;3055;50.886;14.814;2023-07-29T04:52:10;2.40;;;2.20;;
6053;SDS011;3055;50.886;14.814;2023-07-29T04:54:37;4.70;;;2.03;;
6053;SDS011;3055;50.886;14.814;2023-07-29T04:57:05;2.83;;;2.13;;
6053;SDS011;3055;50.886;14.814;2023-07-29T04:59:32;2.40;;;2.20;;
6053;SDS011;3055;50.886;14.814;2023-07-29T05:01:59;2.73;;;2.03;;
6053;SDS011;3055;50.886;14.814;2023-07-29T05:04:26;3.20;;;2.33;;
6053;SDS011;3055;50.886;14.814;2023-07-29T05:06:55;2.30;;;2.10;;
6053;SDS011;3055;50.886;14.814;2023-07-29T05:09:22;2.90;;;2.13;;
6053;SDS011;3055;50.886;14.814;2023-07-29T05:11:49;2.30;;;2.10;;
6053;SDS011;3055;50.886;14.814;2023-07-29T05:14:17;2.73;;;2.33;;
6053;SDS011;3055;50.886;14.814;2023-07-29T05:16:46;2.90;;;2.10;;
6053;SDS011;3055;50.886;14.814;2023-07-29T05:19:13;4.00;;;2.13;;
6053;SDS011;3055;50.886;14.814;2023-07-29T05:21:41;2.03;;;1.93;;
6053;SDS011;3055;50.886;14.814;2023-07-29T05:24:09;2.87;;;2.20;;
6053;SDS011;3055;50.886;14.814;2023-07-29T05:26:36;2.70;;;2.00;;
6053;SDS011;3055;50.886;14.814;2023-07-29T05:29:03;2.47;;;2.20;;
6053;SDS011;3055;50.886;14.814;2023-07-29T05:31:31;2.50;;;2.27;;
6053;SDS011;3055;50.886;14.814;2023-07-29T05:33:59;2.63;;;2.43;;
6053;SDS011;3055;50.886;14.814;2023-07-29T05:36:26;2.70;;;2.07;;
6053;SDS011;3055;50.886;14.814;2023-07-29T05:38:53;1.90;;;1.80;;
6053;SDS011;3055;50.886;14.814;2023-07-29T05:41:21;2.27;;;2.07;;
6053;SDS011;3055;50.886;14.814;2023-07-29T05:43:48;4.70;;;2.80;;
6053;SDS011;3055;50.886;14.814;2023-07-29T05:46:16;2.40;;;2.20;;
6053;SDS011;3055;50.886;14.814;2023-07-29T05:48:43;3.30;;;2.10;;
6053;SDS011;3055;50.886;14.814;2023-07-29T05:51:10;2.00;;;1.90;;
6053;SDS011;3055;50.886;14.814;2023-07-29T05:53:37;2.90;;;1.90;;
6053;SDS011;3055;50.886;14.814;2023-07-29T05:56:04;2.80;;;1.90;;
6053;SDS011;3055;50.886;14.814;2023-07-29T05:58:32;2.83;;;2.17;;
6053;SDS011;3055;50.886;14.814;2023-07-29T06:01:00;1.93;;;1.83;;
6053;SDS011;3055;50.886;14.814;2023-07-29T06:03:27;2.17;;;1.83;;
6053;SDS011;3055;50.886;14.814;2023-07-29T06:05:54;3.20;;;2.10;;
6053;SDS011;3055;50.886;14.814;2023-07-29T06:08:21;2.30;;;2.10;;
6053;SDS011;3055;50.886;14.814;2023-07-29T06:10:49;2.20;;;2.10;;
6053;SDS011;3055;50.886;14.814;2023-07-29T06:13:16;2.40;;;2.30;;
6053;SDS011;3055;50.886;14.814;2023-07-29T06:15:44;2.77;;;2.50;;
6053;SDS011;3055;50.886;14.814;2023-07-29T06:18:11;2.60;;;2.40;;
6053;SDS011;3055;50.886;14.814;2023-07-29T06:20:38;2.80;;;2.60;;
6053;SDS011;3055;50.886;14.814;2023-07-29T06:23:06;3.87;;;3.07;;
6053;SDS011;3055;50.886;14.814;2023-07-29T06:25:34;3.50;;;3.30;;
6053;SDS011;3055;50.886;14.814;2023-07-29T06:28:01;3.63;;;3.43;;
6053;SDS011;3055;50.886;14.814;2023-07-29T06:30:30;3.40;;;3.20;;
6053;SDS011;3055;50.886;14.814;2023-07-29T06:32:58;3.70;;;3.40;;
6053;SDS011;3055;50.886;14.814;2023-07-29T06:35:25;3.90;;;3.60;;
6053;SDS011;3055;50.886;14.814;2023-07-29T06:37:52;3.73;;;3.43;;
6053;SDS011;3055;50.886;14.814;2023-07-29T06:40:20;3.90;;;3.60;;
6053;SDS011;3055;50.886;14.814;2023-07-29T06:42:47;3.90;;;3.63;;
6053;SDS011;3055;50.886;14.814;2023-07-29T06:45:14;3.73;;;3.47;;
6053;SDS011;3055;50.886;14.814;2023-07-29T06:47:41;3.67;;;3.33;;
6053;SDS011;3055;50.886;14.814;2023-07-29T06:50:10;3.53;;;3.33;;
6053;SDS011;3055;50.886;14.814;2023-07-29T06:52:37;3.73;;;3.43;;
6053;SDS011;3055;50.886;14.814;2023-07-29T06:55:05;6.27;;;3.30;;
6053;SDS011;3055;50.886;14.814;2023-07-29T06:57:33;3.73;;;3.40;;
6053;SDS011;3055;50.886;14.814;2023-07-29T07:00:01;3.60;;;3.30;;
6053;SDS011;3055;50.886;14.814;2023-07-29T07:02:28;3.70;;;3.43;;
6053;SDS011;3055;50.886;14.814;2023-07-29T07:04:55;3.80;;;3.50;;
6053;SDS011;3055;50.886;14.814;2023-07-29T07:07:24;3.97;;;3.67;;
6053;SDS011;3055;50.886;14.814;2023-07-29T07:09:51;3.37;;;3.10;;
6053;SDS011;3055;50.886;14.814;2023-07-29T07:12:18;3.60;;;3.40;;
6053;SDS011;3055;50.886;14.814;2023-07-29T07:14:45;3.13;;;2.80;;
6053;SDS011;3055;50.886;14.814;2023-07-29T07:17:12;3.50;;;3.20;;
6053;SDS011;3055;50.886;14.814;2023-07-29T07:19:40;3.00;;;2.80;;
6053;SDS011;3055;50.886;14.814;2023-07-29T07:22:10;3.33;;;3.10;;
6053;SDS011;3055;50.886;14.814;2023-07-29T07:24:38;2.80;;;2.60;;
6053;SDS011;3055;50.886;14.814;2023-07-29T07:27:05;2.70;;;2.50;;
6053;SDS011;3055;50.886;14.814;2023-07-29T07:29:32;2.50;;;2.40;;
6053;SDS011;3055;50.886;14.814;2023-07-29T07:32:00;2.33;;;2.23;;
6053;SDS011;3055;50.886;14.814;2023-07-29T07:34:27;2.77;;;2.57;;
6053;SDS011;3055;50.886;14.814;2023-07-29T07:36:54;2.60;;;2.40;;
6053;SDS011;3055;50.886;14.814;2023-07-29T07:39:21;3.93;;;2.27;;
6053;SDS011;3055;50.886;14.814;2023-07-29T07:41:50;3.27;;;2.20;;
6053;SDS011;3055;50.886;14.814;2023-07-29T07:44:17;3.47;;;2.30;;
6053;SDS011;3055;50.886;14.814;2023-07-29T07:46:44;2.37;;;2.17;;
6053;SDS011;3055;50.886;14.814;2023-07-29T07:49:11;4.10;;;2.10;;
6053;SDS011;3055;50.886;14.814;2023-07-29T07:51:39;1.97;;;1.80;;
6053;SDS011;3055;50.886;14.814;2023-07-29T07:54:06;1.70;;;1.60;;
6053;SDS011;3055;50.886;14.814;2023-07-29T07:56:34;2.10;;;1.80;;
6053;SDS011;3055;50.886;14.814;2023-07-29T07:59:03;2.10;;;2.00;;
6053;SDS011;3055;50.886;14.814;2023-07-29T08:01:33;1.93;;;1.60;;
6053;SDS011;3055;50.886;14.814;2023-07-29T08:04:02;2.10;;;2.00;;
6053;SDS011;3055;50.886;14.814;2023-07-29T08:06:29;2.30;;;1.37;;
6053;SDS011;3055;50.886;14.814;2023-07-29T08:08:56;1.70;;;1.60;;
6053;SDS011;3055;50.886;14.814;2023-07-29T08:11:23;1.60;;;1.50;;
6053;SDS011;3055;50.886;14.814;2023-07-29T08:13:51;2.73;;;1.73;;
6053;SDS011;3055;50.886;14.814;2023-07-29T08:16:19;1.80;;;1.50;;
6053;SDS011;3055;50.886;14.814;2023-07-29T08:18:47;1.80;;;1.70;;
6053;SDS011;3055;50.886;14.814;2023-07-29T08:21:14;1.50;;;1.40;;
6053;SDS011;3055;50.886;14.814;2023-07-29T08:23:41;2.13;;;1.50;;
6053;SDS011;3055;50.886;14.814;2023-07-29T08:26:10;1.60;;;1.50;;
6053;SDS011;3055;50.886;14.814;2023-07-29T08:28:37;3.00;;;1.50;;
6053;SDS011;3055;50.886;14.814;2023-07-29T08:31:06;1.80;;;1.70;;
6053;SDS011;3055;50.886;14.814;2023-07-29T08:33:35;1.70;;;1.60;;
6053;SDS011;3055;50.886;14.814;2023-07-29T08:36:02;2.17;;;1.47;;
6053;SDS011;3055;50.886;14.814;2023-07-29T08:38:30;1.67;;;1.57;;
6053;SDS011;3055;50.886;14.814;2023-07-29T08:40:59;2.17;;;1.40;;
6053;SDS011;3055;50.886;14.814;2023-07-29T08:43:36;2.40;;;1.60;;
6053;SDS011;3055;50.886;14.814;2023-07-29T08:46:08;2.50;;;1.30;;
6053;SDS011;3055;50.886;14.814;2023-07-29T08:48:40;1.43;;;1.33;;
6053;SDS011;3055;50.886;14.814;2023-07-29T08:51:08;2.20;;;1.40;;
6053;SDS011;3055;50.886;14.814;2023-07-29T08:53:37;1.50;;;1.40;;
6053;SDS011;3055;50.886;14.814;2023-07-29T08:56:06;2.23;;;1.73;;
6053;SDS011;3055;50.886;14.814;2023-07-29T08:58:34;1.77;;;1.50;;
6053;SDS011;3055;50.886;14.814;2023-07-29T09:01:01;1.40;;;1.30;;
6053;SDS011;3055;50.886;14.814;2023-07-29T09:03:29;2.30;;;1.57;;
6053;SDS011;3055;50.886;14.814;2023-07-29T09:05:57;1.40;;;1.30;;
6053;SDS011;3055;50.886;14.814;2023-07-29T09:08:26;1.37;;;1.27;;
6053;SDS011;3055;50.886;14.814;2023-07-29T09:10:53;1.40;;;1.30;;
6053;SDS011;3055;50.886;14.814;2023-07-29T09:13:21;1.50;;;1.40;;
6053;SDS011;3055;50.886;14.814;2023-07-29T09:15:49;1.30;;;1.20;;
6053;SDS011;3055;50.886;14.814;2023-07-29T09:18:20;1.60;;;1.50;;
6053;SDS011;3055;50.886;14.814;2023-07-29T09:20:47;1.63;;;1.30;;
6053;SDS011;3055;50.886;14.814;2023-07-29T09:23:16;1.30;;;1.20;;
6053;SDS011;3055;50.886;14.814;2023-07-29T09:25:43;1.00;;;1.00;;
6053;SDS011;3055;50.886;14.814;2023-07-29T09:28:13;3.53;;;1.30;;
6053;SDS011;3055;50.886;14.814;2023-07-29T09:30:42;1.10;;;1.00;;
6053;SDS011;3055;50.886;14.814;2023-07-29T09:33:11;1.30;;;1.20;;
6053;SDS011;3055;50.886;14.814;2023-07-29T09:35:38;1.43;;;0.90;;
6053;SDS011;3055;50.886;14.814;2023-07-29T09:38:05;1.00;;;1.00;;
6053;SDS011;3055;50.886;14.814;2023-07-29T09:40:37;1.37;;;1.27;;
6053;SDS011;3055;50.886;14.814;2023-07-29T09:43:06;0.93;;;0.90;;
6053;SDS011;3055;50.886;14.814;2023-07-29T09:45:35;1.00;;;1.00;;
6053;SDS011;3055;50.886;14.814;2023-07-29T09:48:04;1.40;;;1.30;;
6053;SDS011;3055;50.886;14.814;2023-07-29T09:50:35;2.43;;;1.10;;
6053;SDS011;3055;50.886;14.814;2023-07-29T09:53:01;2.57;;;1.40;;
6053;SDS011;3055;50.886;14.814;2023-07-29T09:55:29;1.47;;;1.37;;
6053;SDS011;3055;50.886;14.814;2023-07-29T09:58:00;1.00;;;1.00;;
6053;SDS011;3055;50.886;14.814;2023-07-29T10:00:32;2.80;;;1.23;;
6053;SDS011;3055;50.886;14.814;2023-07-29T10:02:59;1.20;;;1.10;;
6053;SDS011;3055;50.886;14.814;2023-07-29T10:05:27;1.63;;;1.00;;
6053;SDS011;3055;50.886;14.814;2023-07-29T10:07:55;2.80;;;1.23;;
6053;SDS011;3055;50.886;14.814;2023-07-29T10:10:23;1.20;;;1.10;;
6053;SDS011;3055;50.886;14.814;2023-07-29T10:12:50;1.30;;;1.20;;
6053;SDS011;3055;50.886;14.814;2023-07-29T10:15:19;1.33;;;1.23;;
6053;SDS011;3055;50.886;14.814;2023-07-29T10:17:47;1.60;;;1.37;;
6053;SDS011;3055;50.886;14.814;2023-07-29T10:20:16;2.03;;;1.30;;
6053;SDS011;3055;50.886;14.814;2023-07-29T10:22:43;3.00;;;1.40;;
6053;SDS011;3055;50.886;14.814;2023-07-29T10:25:15;1.80;;;1.40;;
6053;SDS011;3055;50.886;14.814;2023-07-29T10:27:43;1.37;;;1.30;;
6053;SDS011;3055;50.886;14.814;2023-07-29T10:30:13;1.57;;;1.47;;
6053;SDS011;3055;50.886;14.814;2023-07-29T10:32:43;2.23;;;1.30;;
6053;SDS011;3055;50.886;14.814;2023-07-29T10:35:11;1.30;;;1.20;;
6053;SDS011;3055;50.886;14.814;2023-07-29T10:37:38;1.63;;;1.40;;
6053;SDS011;3055;50.886;14.814;2023-07-29T10:40:07;1.50;;;1.40;;
6053;SDS011;3055;50.886;14.814;2023-07-29T10:42:35;1.73;;;1.47;;
6053;SDS011;3055;50.886;14.814;2023-07-29T10:45:17;4.47;;;1.20;;
6053;SDS011;3055;50.886;14.814;2023-07-29T10:47:47;3.37;;;1.13;;
6053;SDS011;3055;50.886;14.814;2023-07-29T10:50:18;1.63;;;1.17;;
6053;SDS011;3055;50.886;14.814;2023-07-29T10:52:48;2.60;;;1.17;;
6053;SDS011;3055;50.886;14.814;2023-07-29T10:55:25;1.30;;;1.20;;
6053;SDS011;3055;50.886;14.814;2023-07-29T10:58:04;1.47;;;1.00;;
6053;SDS011;3055;50.886;14.814;2023-07-29T11:00:35;1.00;;;0.90;;
6053;SDS011;3055;50.886;14.814;2023-07-29T11:03:05;2.20;;;1.27;;
6053;SDS011;3055;50.886;14.814;2023-07-29T11:05:46;4.40;;;1.57;;
6053;SDS011;3055;50.886;14.814;2023-07-29T11:08:18;1.30;;;1.20;;
6053;SDS011;3055;50.886;14.814;2023-07-29T11:10:57;1.83;;;0.93;;
6053;SDS011;3055;50.886;14.814;2023-07-29T11:13:28;1.20;;;0.70;;
6053;SDS011;3055;50.886;14.814;2023-07-29T11:15:56;1.27;;;0.80;;
6053;SDS011;3055;50.886;14.814;2023-07-29T11:18:27;4.27;;;1.47;;
6053;SDS011;3055;50.886;14.814;2023-07-29T11:20:55;1.27;;;1.17;;
6053;SDS011;3055;50.886;14.814;2023-07-29T11:23:32;1.83;;;1.20;;
6053;SDS011;3055;50.886;14.814;2023-07-29T11:26:01;2.30;;;1.20;;
6053;SDS011;3055;50.886;14.814;2023-07-29T11:28:29;1.00;;;1.00;;
6053;SDS011;3055;50.886;14.814;2023-07-29T11:30:56;2.27;;;1.00;;
6053;SDS011;3055;50.886;14.814;2023-07-29T11:33:24;2.67;;;1.20;;
6053;SDS011;3055;50.886;14.814;2023-07-29T11:35:54;2.60;;;0.90;;
6053;SDS011;3055;50.886;14.814;2023-07-29T11:38:22;1.80;;;0.97;;
6053;SDS011;3055;50.886;14.814;2023-07-29T11:40:56;1.57;;;1.03;;
6053;SDS011;3055;50.886;14.814;2023-07-29T11:43:24;5.23;;;1.60;;
6053;SDS011;3055;50.886;14.814;2023-07-29T11:45:51;2.87;;;1.10;;
6053;SDS011;3055;50.886;14.814;2023-07-29T11:48:25;1.10;;;1.00;;
6053;SDS011;3055;50.886;14.814;2023-07-29T11:50:54;1.30;;;1.20;;
6053;SDS011;3055;50.886;14.814;2023-07-29T11:53:22;2.40;;;1.00;;
6053;SDS011;3055;50.886;14.814;2023-07-29T11:55:52;2.40;;;1.00;;
6053;SDS011;3055;50.886;14.814;2023-07-29T11:58:20;1.20;;;1.10;;
6053;SDS011;3055;50.886;14.814;2023-07-29T12:00:47;3.63;;;1.03;;
6053;SDS011;3055;50.886;14.814;2023-07-29T12:03:15;1.00;;;0.90;;
6053;SDS011;3055;50.886;14.814;2023-07-29T12:05:44;1.37;;;0.90;;
6053;SDS011;3055;50.886;14.814;2023-07-29T12:08:13;1.80;;;0.97;;
6053;SDS011;3055;50.886;14.814;2023-07-29T12:10:40;1.23;;;1.13;;
6053;SDS011;3055;50.886;14.814;2023-07-29T12:13:07;2.20;;;0.93;;
6053;SDS011;3055;50.886;14.814;2023-07-29T12:15:37;1.53;;;0.90;;
6053;SDS011;3055;50.886;14.814;2023-07-29T12:18:04;0.90;;;0.73;;
6053;SDS011;3055;50.886;14.814;2023-07-29T12:20:31;1.00;;;0.90;;
6053;SDS011;3055;50.886;14.814;2023-07-29T12:22:59;2.37;;;1.00;;
6053;SDS011;3055;50.886;14.814;2023-07-29T12:25:29;1.10;;;0.87;;
6053;SDS011;3055;50.886;14.814;2023-07-29T12:27:56;1.10;;;1.00;;
6053;SDS011;3055;50.886;14.814;2023-07-29T12:30:28;4.27;;;1.30;;
6053;SDS011;3055;50.886;14.814;2023-07-29T12:32:55;4.70;;;2.00;;
6053;SDS011;3055;50.886;14.814;2023-07-29T12:35:22;4.13;;;1.53;;
6053;SDS011;3055;50.886;14.814;2023-07-29T12:37:57;2.27;;;1.43;;
6053;SDS011;3055;50.886;14.814;2023-07-29T12:40:25;1.37;;;1.17;;
6053;SDS011;3055;50.886;14.814;2023-07-29T12:42:54;2.23;;;1.20;;
6053;SDS011;3055;50.886;14.814;2023-07-29T12:45:22;2.10;;;1.40;;
6053;SDS011;3055;50.886;14.814;2023-07-29T12:47:52;1.40;;;1.23;;
6053;SDS011;3055;50.886;14.814;2023-07-29T12:50:19;3.20;;;1.30;;
6053;SDS011;3055;50.886;14.814;2023-07-29T12:52:46;1.63;;;1.00;;
6053;SDS011;3055;50.886;14.814;2023-07-29T12:55:13;2.87;;;1.30;;
6053;SDS011;3055;50.886;14.814;2023-07-29T12:57:41;1.70;;;1.30;;
6053;SDS011;3055;50.886;14.814;2023-07-29T13:00:10;1.33;;;1.20;;
6053;SDS011;3055;50.886;14.814;2023-07-29T13:02:38;1.70;;;1.60;;
6053;SDS011;3055;50.886;14.814;2023-07-29T13:05:06;3.30;;;1.57;;
6053;SDS011;3055;50.886;14.814;2023-07-29T13:07:36;2.37;;;1.20;;
6053;SDS011;3055;50.886;14.814;2023-07-29T13:10:03;2.40;;;1.10;;
6053;SDS011;3055;50.886;14.814;2023-07-29T13:12:31;2.97;;;1.30;;
6053;SDS011;3055;50.886;14.814;2023-07-29T13:14:58;1.40;;;1.30;;
6053;SDS011;3055;50.886;14.814;2023-07-29T13:17:26;3.00;;;1.30;;
6053;SDS011;3055;50.886;14.814;2023-07-29T13:19:53;2.57;;;1.20;;
6053;SDS011;3055;50.886;14.814;2023-07-29T13:22:20;2.00;;;1.00;;
6053;SDS011;3055;50.886;14.814;2023-07-29T13:24:47;1.27;;;1.17;;
6053;SDS011;3055;50.886;14.814;2023-07-29T13:27:15;2.43;;;1.00;;
6053;SDS011;3055;50.886;14.814;2023-07-29T13:29:42;1.47;;;1.37;;
6053;SDS011;3055;50.886;14.814;2023-07-29T13:32:09;2.70;;;1.13;;
6053;SDS011;3055;50.886;14.814;2023-07-29T13:34:38;1.10;;;1.00;;
6053;SDS011;3055;50.886;14.814;2023-07-29T13:37:05;2.20;;;0.90;;
6053;SDS011;3055;50.886;14.814;2023-07-29T13:39:32;2.20;;;1.10;;
6053;SDS011;3055;50.886;14.814;2023-07-29T13:41:59;2.83;;;0.80;;
6053;SDS011;3055;50.886;14.814;2023-07-29T13:44:27;2.20;;;0.80;;
6053;SDS011;3055;50.886;14.814;2023-07-29T13:46:54;1.00;;;1.00;;
6053;SDS011;3055;50.886;14.814;2023-07-29T13:49:21;1.47;;;0.80;;
6053;SDS011;3055;50.886;14.814;2023-07-29T13:51:55;1.37;;;0.97;;
6053;SDS011;3055;50.886;14.814;2023-07-29T13:54:22;0.83;;;0.80;;
6053;SDS011;3055;50.886;14.814;2023-07-29T13:56:49;3.50;;;0.87;;
6053;SDS011;3055;50.886;14.814;2023-07-29T13:59:16;2.33;;;1.10;;
6053;SDS011;3055;50.886;14.814;2023-07-29T14:01:43;0.80;;;0.70;;
6053;SDS011;3055;50.886;14.814;2023-07-29T14:04:10;2.00;;;0.60;;
6053;SDS011;3055;50.886;14.814;2023-07-29T14:06:37;1.90;;;0.77;;
6053;SDS011;3055;50.886;14.814;2023-07-29T14:09:06;0.87;;;0.80;;
6053;SDS011;3055;50.886;14.814;2023-07-29T14:11:33;1.37;;;0.70;;
6053;SDS011;3055;50.886;14.814;2023-07-29T14:14:02;0.80;;;0.80;;
6053;SDS011;3055;50.886;14.814;2023-07-29T14:16:29;1.60;;;0.80;;
6053;SDS011;3055;50.886;14.814;2023-07-29T14:18:56;2.30;;;0.70;;
6053;SDS011;3055;50.886;14.814;2023-07-29T14:21:23;1.30;;;0.90;;
6053;SDS011;3055;50.886;14.814;2023-07-29T14:23:51;1.00;;;0.90;;
6053;SDS011;3055;50.886;14.814;2023-07-29T14:26:19;0.83;;;0.83;;
6053;SDS011;3055;50.886;14.814;2023-07-29T14:28:46;0.73;;;0.70;;
6053;SDS011;3055;50.886;14.814;2023-07-29T14:31:14;0.93;;;0.87;;
6053;SDS011;3055;50.886;14.814;2023-07-29T14:33:42;1.60;;;0.90;;
6053;SDS011;3055;50.886;14.814;2023-07-29T14:36:09;1.27;;;0.90;;
6053;SDS011;3055;50.886;14.814;2023-07-29T14:38:36;1.37;;;0.80;;
6053;SDS011;3055;50.886;14.814;2023-07-29T14:41:03;0.97;;;0.70;;
6053;SDS011;3055;50.886;14.814;2023-07-29T14:43:32;1.30;;;0.80;;
6053;SDS011;3055;50.886;14.814;2023-07-29T14:45:59;1.37;;;0.93;;
6053;SDS011;3055;50.886;14.814;2023-07-29T14:48:27;4.83;;;1.37;;
6053;SDS011;3055;50.886;14.814;2023-07-29T14:50:55;1.30;;;0.80;;
6053;SDS011;3055;50.886;14.814;2023-07-29T14:53:22;0.97;;;0.87;;
6053;SDS011;3055;50.886;14.814;2023-07-29T14:55:50;2.07;;;0.80;;
6053;SDS011;3055;50.886;14.814;2023-07-29T14:58:17;0.70;;;0.70;;
6053;SDS011;3055;50.886;14.814;2023-07-29T15:00:45;2.13;;;0.80;;
6053;SDS011;3055;50.886;14.814;2023-07-29T15:03:12;1.00;;;0.63;;
6053;SDS011;3055;50.886;14.814;2023-07-29T15:05:39;0.70;;;0.70;;